sensor_id;sensor_type;location;lat;lon;timestamp;P1;durP1;ratioP1;P2;durP2;ratioP2
72621;SDS011;60665;53.506;9.582;2023-02-28T05:00:26;5.72;;;2.40;;
72621;SDS011;60665;53.506;9.582;2023-02-28T05:02:51;5.90;;;2.15;;
72621;SDS011;60665;53.506;9.582;2023-02-28T05:05:17;6.03;;;2.33;;
72621;SDS011;60665;53.506;9.582;2023-02-28T05:07:43;4.10;;;2.10;;
72621;SDS011;60665;53.506;9.582;2023-02-28T05:10:09;5.05;;;2.13;;
72621;SDS011;60665;53.506;9.582;2023-02-28T05:12:35;3.95;;;1.92;;
72621;SDS011;60665;53.506;9.582;2023-02-28T05:15:01;6.90;;;1.88;;
72621;SDS011;60665;53.506;9.582;2023-02-28T05:17:27;7.35;;;1.77;;
72621;SDS011;60665;53.506;9.582;2023-02-28T05:19:52;4.55;;;1.90;;
72621;SDS011;60665;53.506;9.582;2023-02-28T05:22:18;4.20;;;2.00;;
72621;SDS011;60665;53.506;9.582;2023-02-28T05:24:43;7.60;;;2.28;;
72621;SDS011;60665;53.506;9.582;2023-02-28T05:27:09;5.63;;;2.25;;
72621;SDS011;60665;53.506;9.582;2023-02-28T05:29:35;6.75;;;2.95;;
72621;SDS011;60665;53.506;9.582;2023-02-28T05:32:06;9.30;;;3.13;;
72621;SDS011;60665;53.506;9.582;2023-02-28T05:34:36;5.97;;;2.00;;
72621;SDS011;60665;53.506;9.582;2023-02-28T05:37:05;5.93;;;2.10;;
72621;SDS011;60665;53.506;9.582;2023-02-28T05:39:31;6.10;;;2.20;;
72621;SDS011;60665;53.506;9.582;2023-02-28T05:41:57;5.00;;;1.60;;
72621;SDS011;60665;53.506;9.582;2023-02-28T05:44:23;4.90;;;1.67;;
72621;SDS011;60665;53.506;9.582;2023-02-28T05:46:49;4.72;;;1.60;;
72621;SDS011;60665;53.506;9.582;2023-02-28T05:49:14;4.53;;;1.75;;
72621;SDS011;60665;53.506;9.582;2023-02-28T05:51:40;5.30;;;1.90;;
72621;SDS011;60665;53.506;9.582;2023-02-28T05:54:05;6.57;;;1.80;;
72621;SDS011;60665;53.506;9.582;2023-02-28T05:56:31;4.40;;;1.80;;
72621;SDS011;60665;53.506;9.582;2023-02-28T05:58:56;3.50;;;1.58;;
72621;SDS011;60665;53.506;9.582;2023-02-28T06:01:24;4.45;;;1.55;;
72621;SDS011;60665;53.506;9.582;2023-02-28T06:03:55;6.05;;;1.85;;
72621;SDS011;60665;53.506;9.582;2023-02-28T06:06:21;4.43;;;1.70;;
72621;SDS011;60665;53.506;9.582;2023-02-28T06:08:46;5.22;;;2.47;;
72621;SDS011;60665;53.506;9.582;2023-02-28T06:11:12;7.95;;;2.53;;
72621;SDS011;60665;53.506;9.582;2023-02-28T06:13:37;5.88;;;2.03;;
72621;SDS011;60665;53.506;9.582;2023-02-28T06:16:03;6.53;;;2.20;;
72621;SDS011;60665;53.506;9.582;2023-02-28T06:18:29;6.43;;;2.42;;
72621;SDS011;60665;53.506;9.582;2023-02-28T06:20:54;6.03;;;2.28;;
72621;SDS011;60665;53.506;9.582;2023-02-28T06:23:20;5.22;;;2.08;;
72621;SDS011;60665;53.506;9.582;2023-02-28T06:25:46;5.35;;;2.10;;
72621;SDS011;60665;53.506;9.582;2023-02-28T06:28:12;4.70;;;1.70;;
72621;SDS011;60665;53.506;9.582;2023-02-28T06:30:38;5.82;;;2.10;;
72621;SDS011;60665;53.506;9.582;2023-02-28T06:33:04;4.53;;;1.77;;
72621;SDS011;60665;53.506;9.582;2023-02-28T06:35:29;4.93;;;2.22;;
72621;SDS011;60665;53.506;9.582;2023-02-28T06:37:55;5.35;;;2.35;;
72621;SDS011;60665;53.506;9.582;2023-02-28T06:40:21;4.78;;;2.20;;
72621;SDS011;60665;53.506;9.582;2023-02-28T06:42:46;4.38;;;1.88;;
72621;SDS011;60665;53.506;9.582;2023-02-28T06:45:11;6.75;;;2.08;;
72621;SDS011;60665;53.506;9.582;2023-02-28T06:47:38;5.65;;;2.00;;
72621;SDS011;60665;53.506;9.582;2023-02-28T06:50:04;5.47;;;1.90;;
72621;SDS011;60665;53.506;9.582;2023-02-28T06:52:30;5.00;;;2.00;;
72621;SDS011;60665;53.506;9.582;2023-02-28T06:54:56;5.63;;;2.08;;
72621;SDS011;60665;53.506;9.582;2023-02-28T06:57:32;4.43;;;2.03;;
72621;SDS011;60665;53.506;9.582;2023-02-28T06:59:59;6.00;;;2.20;;
72621;SDS011;60665;53.506;9.582;2023-02-28T07:02:25;5.78;;;2.22;;
72621;SDS011;60665;53.506;9.582;2023-02-28T07:04:51;4.55;;;1.90;;
72621;SDS011;60665;53.506;9.582;2023-02-28T16:29:13;4.60;;;1.60;;
72621;SDS011;60665;53.506;9.582;2023-02-28T16:31:44;3.10;;;1.02;;
72621;SDS011;60665;53.506;9.582;2023-02-28T16:34:09;4.20;;;1.23;;
72621;SDS011;60665;53.506;9.582;2023-02-28T16:36:35;3.65;;;1.35;;
72621;SDS011;60665;53.506;9.582;2023-02-28T16:39:00;6.22;;;1.15;;
72621;SDS011;60665;53.506;9.582;2023-02-28T16:41:27;4.15;;;1.35;;
72621;SDS011;60665;53.506;9.582;2023-02-28T16:43:54;3.20;;;1.20;;
72621;SDS011;60665;53.506;9.582;2023-02-28T16:46:23;2.85;;;0.95;;
72621;SDS011;60665;53.506;9.582;2023-02-28T16:48:49;3.58;;;1.00;;
72621;SDS011;60665;53.506;9.582;2023-02-28T16:51:16;3.35;;;1.20;;
72621;SDS011;60665;53.506;9.582;2023-02-28T16:53:42;4.53;;;1.10;;
72621;SDS011;60665;53.506;9.582;2023-02-28T16:56:16;4.22;;;1.10;;
72621;SDS011;60665;53.506;9.582;2023-02-28T16:58:46;4.45;;;0.93;;
72621;SDS011;60665;53.506;9.582;2023-02-28T17:01:13;2.70;;;1.00;;
72621;SDS011;60665;53.506;9.582;2023-02-28T17:03:38;3.90;;;1.10;;
72621;SDS011;60665;53.506;9.582;2023-02-28T17:06:05;2.22;;;0.90;;
72621;SDS011;60665;53.506;9.582;2023-02-28T17:08:31;2.33;;;1.08;;
72621;SDS011;60665;53.506;9.582;2023-02-28T17:10:58;4.80;;;1.20;;
72621;SDS011;60665;53.506;9.582;2023-02-28T17:13:24;3.88;;;1.27;;
72621;SDS011;60665;53.506;9.582;2023-02-28T17:15:49;1.92;;;0.93;;
72621;SDS011;60665;53.506;9.582;2023-02-28T17:18:16;3.95;;;1.05;;
72621;SDS011;60665;53.506;9.582;2023-02-28T17:20:44;3.08;;;1.02;;
72621;SDS011;60665;53.506;9.582;2023-02-28T17:23:10;4.63;;;1.45;;
72621;SDS011;60665;53.506;9.582;2023-02-28T17:25:35;4.35;;;1.10;;
72621;SDS011;60665;53.506;9.582;2023-02-28T17:28:01;4.82;;;1.40;;
72621;SDS011;60665;53.506;9.582;2023-02-28T17:30:27;3.38;;;1.35;;
72621;SDS011;60665;53.506;9.582;2023-02-28T17:32:55;5.35;;;1.17;;
72621;SDS011;60665;53.506;9.582;2023-02-28T17:35:21;5.28;;;1.42;;
72621;SDS011;60665;53.506;9.582;2023-02-28T17:37:47;3.85;;;1.10;;
72621;SDS011;60665;53.506;9.582;2023-02-28T17:40:14;4.10;;;1.02;;
72621;SDS011;60665;53.506;9.582;2023-02-28T17:42:41;5.53;;;0.93;;
72621;SDS011;60665;53.506;9.582;2023-02-28T17:45:07;4.05;;;1.20;;
72621;SDS011;60665;53.506;9.582;2023-02-28T17:47:33;4.55;;;1.30;;
72621;SDS011;60665;53.506;9.582;2023-02-28T17:49:58;3.22;;;1.23;;
72621;SDS011;60665;53.506;9.582;2023-02-28T17:52:23;2.88;;;1.00;;
72621;SDS011;60665;53.506;9.582;2023-02-28T17:54:49;6.18;;;1.13;;
72621;SDS011;60665;53.506;9.582;2023-02-28T17:57:14;2.95;;;1.05;;
72621;SDS011;60665;53.506;9.582;2023-02-28T17:59:41;3.92;;;1.40;;
72621;SDS011;60665;53.506;9.582;2023-02-28T18:02:07;5.57;;;1.17;;
72621;SDS011;60665;53.506;9.582;2023-02-28T18:04:34;4.47;;;1.30;;
72621;SDS011;60665;53.506;9.582;2023-02-28T18:06:59;4.30;;;0.80;;
72621;SDS011;60665;53.506;9.582;2023-02-28T18:09:25;4.10;;;1.00;;
72621;SDS011;60665;53.506;9.582;2023-02-28T18:11:52;3.33;;;1.02;;
72621;SDS011;60665;53.506;9.582;2023-02-28T18:14:19;4.55;;;1.13;;
72621;SDS011;60665;53.506;9.582;2023-02-28T18:19:13;3.60;;;1.17;;
72621;SDS011;60665;53.506;9.582;2023-02-28T18:21:45;4.55;;;1.38;;
72621;SDS011;60665;53.506;9.582;2023-02-28T18:24:18;4.25;;;1.13;;
72621;SDS011;60665;53.506;9.582;2023-02-28T18:26:44;3.00;;;1.00;;
72621;SDS011;60665;53.506;9.582;2023-02-28T18:29:15;4.00;;;1.23;;
72621;SDS011;60665;53.506;9.582;2023-02-28T18:31:46;3.17;;;1.70;;
72621;SDS011;60665;53.506;9.582;2023-02-28T18:34:11;4.53;;;1.30;;
72621;SDS011;60665;53.506;9.582;2023-02-28T18:36:36;4.57;;;1.20;;
72621;SDS011;60665;53.506;9.582;2023-02-28T18:39:02;4.70;;;1.30;;
72621;SDS011;60665;53.506;9.582;2023-02-28T18:41:27;4.90;;;1.33;;
72621;SDS011;60665;53.506;9.582;2023-02-28T18:43:53;5.57;;;2.00;;
72621;SDS011;60665;53.506;9.582;2023-02-28T18:46:19;5.25;;;1.60;;
72621;SDS011;60665;53.506;9.582;2023-02-28T18:48:45;5.10;;;1.50;;
72621;SDS011;60665;53.506;9.582;2023-02-28T18:53:37;3.65;;;1.42;;
72621;SDS011;60665;53.506;9.582;2023-02-28T18:56:04;6.38;;;1.77;;
72621;SDS011;60665;53.506;9.582;2023-02-28T18:58:30;5.57;;;2.10;;
72621;SDS011;60665;53.506;9.582;2023-02-28T19:00:59;4.97;;;2.00;;
72621;SDS011;60665;53.506;9.582;2023-02-28T19:03:25;5.55;;;1.63;;
72621;SDS011;60665;53.506;9.582;2023-02-28T19:05:54;3.72;;;1.30;;
72621;SDS011;60665;53.506;9.582;2023-02-28T19:08:20;4.78;;;1.48;;
72621;SDS011;60665;53.506;9.582;2023-02-28T19:10:46;4.68;;;1.38;;
72621;SDS011;60665;53.506;9.582;2023-02-28T19:13:11;4.05;;;1.35;;
72621;SDS011;60665;53.506;9.582;2023-02-28T19:15:38;7.55;;;1.88;;
72621;SDS011;60665;53.506;9.582;2023-02-28T19:18:03;4.88;;;1.83;;
72621;SDS011;60665;53.506;9.582;2023-02-28T19:20:29;4.70;;;1.60;;
72621;SDS011;60665;53.506;9.582;2023-02-28T19:22:55;4.45;;;1.60;;
72621;SDS011;60665;53.506;9.582;2023-02-28T19:25:20;3.97;;;1.50;;
72621;SDS011;60665;53.506;9.582;2023-02-28T19:27:46;4.63;;;1.33;;
72621;SDS011;60665;53.506;9.582;2023-02-28T19:30:11;3.60;;;1.40;;
72621;SDS011;60665;53.506;9.582;2023-02-28T19:32:37;4.85;;;1.60;;
72621;SDS011;60665;53.506;9.582;2023-02-28T19:35:02;3.92;;;1.42;;
72621;SDS011;60665;53.506;9.582;2023-02-28T19:37:28;4.30;;;1.25;;
72621;SDS011;60665;53.506;9.582;2023-02-28T19:39:54;5.15;;;1.55;;
72621;SDS011;60665;53.506;9.582;2023-02-28T19:42:21;5.88;;;1.40;;
72621;SDS011;60665;53.506;9.582;2023-02-28T19:44:47;4.20;;;1.30;;
72621;SDS011;60665;53.506;9.582;2023-02-28T19:47:12;3.00;;;1.05;;
72621;SDS011;60665;53.506;9.582;2023-02-28T19:49:38;4.03;;;1.10;;
72621;SDS011;60665;53.506;9.582;2023-02-28T19:52:03;5.55;;;1.20;;
72621;SDS011;60665;53.506;9.582;2023-02-28T19:54:29;2.75;;;1.00;;
72621;SDS011;60665;53.506;9.582;2023-02-28T19:56:54;4.32;;;1.50;;
72621;SDS011;60665;53.506;9.582;2023-02-28T19:59:24;3.83;;;1.00;;
72621;SDS011;60665;53.506;9.582;2023-02-28T20:01:50;2.90;;;0.93;;
72621;SDS011;60665;53.506;9.582;2023-02-28T20:04:20;3.88;;;1.33;;
72621;SDS011;60665;53.506;9.582;2023-02-28T20:06:45;4.40;;;1.42;;
72621;SDS011;60665;53.506;9.582;2023-02-28T20:09:11;5.80;;;1.50;;
72621;SDS011;60665;53.506;9.582;2023-02-28T20:11:36;3.42;;;1.30;;
72621;SDS011;60665;53.506;9.582;2023-02-28T20:14:02;2.83;;;0.80;;
72621;SDS011;60665;53.506;9.582;2023-02-28T20:16:29;5.15;;;1.17;;
72621;SDS011;60665;53.506;9.582;2023-02-28T20:18:55;3.70;;;1.23;;
72621;SDS011;60665;53.506;9.582;2023-02-28T20:21:20;3.42;;;1.10;;
72621;SDS011;60665;53.506;9.582;2023-02-28T20:23:46;3.15;;;1.05;;
72621;SDS011;60665;53.506;9.582;2023-02-28T20:26:12;2.92;;;0.77;;
72621;SDS011;60665;53.506;9.582;2023-02-28T20:28:39;3.08;;;1.00;;
72621;SDS011;60665;53.506;9.582;2023-02-28T20:31:11;3.03;;;0.98;;
72621;SDS011;60665;53.506;9.582;2023-02-28T20:33:40;3.05;;;0.93;;
72621;SDS011;60665;53.506;9.582;2023-02-28T20:36:06;3.78;;;1.08;;
72621;SDS011;60665;53.506;9.582;2023-02-28T20:38:34;2.13;;;0.73;;
72621;SDS011;60665;53.506;9.582;2023-02-28T20:41:00;3.13;;;0.90;;
72621;SDS011;60665;53.506;9.582;2023-02-28T20:43:25;3.10;;;0.90;;
72621;SDS011;60665;53.506;9.582;2023-02-28T20:45:51;2.95;;;0.98;;
72621;SDS011;60665;53.506;9.582;2023-02-28T20:48:18;2.30;;;0.90;;
72621;SDS011;60665;53.506;9.582;2023-02-28T20:50:47;2.35;;;0.93;;
72621;SDS011;60665;53.506;9.582;2023-02-28T20:53:16;3.22;;;1.13;;
72621;SDS011;60665;53.506;9.582;2023-02-28T20:55:46;4.10;;;1.10;;
72621;SDS011;60665;53.506;9.582;2023-02-28T20:58:20;3.80;;;1.00;;
72621;SDS011;60665;53.506;9.582;2023-02-28T21:00:46;3.05;;;1.05;;
72621;SDS011;60665;53.506;9.582;2023-02-28T21:03:11;3.67;;;1.30;;
72621;SDS011;60665;53.506;9.582;2023-02-28T21:05:37;2.17;;;0.75;;
72621;SDS011;60665;53.506;9.582;2023-02-28T21:08:02;3.90;;;1.10;;
72621;SDS011;60665;53.506;9.582;2023-02-28T21:10:28;4.05;;;1.13;;
72621;SDS011;60665;53.506;9.582;2023-02-28T21:12:53;2.22;;;0.82;;
72621;SDS011;60665;53.506;9.582;2023-02-28T21:15:21;3.58;;;1.05;;
72621;SDS011;60665;53.506;9.582;2023-02-28T21:17:50;4.53;;;1.10;;
72621;SDS011;60665;53.506;9.582;2023-02-28T21:20:15;2.60;;;0.93;;
72621;SDS011;60665;53.506;9.582;2023-02-28T21:22:48;2.10;;;0.82;;
72621;SDS011;60665;53.506;9.582;2023-02-28T21:25:13;3.00;;;1.10;;
72621;SDS011;60665;53.506;9.582;2023-02-28T21:27:40;2.50;;;0.90;;
72621;SDS011;60665;53.506;9.582;2023-02-28T21:30:06;3.53;;;1.13;;
72621;SDS011;60665;53.506;9.582;2023-02-28T21:32:32;2.13;;;1.00;;
72621;SDS011;60665;53.506;9.582;2023-02-28T21:34:58;4.32;;;0.93;;
